createdAt,value
2022-09-24T00:01:35.999Z,10.37
2022-09-24T00:04:05.780Z,11.67
2022-09-24T00:06:37.443Z,13.23
2022-09-24T00:09:05.166Z,10.83
2022-09-24T00:11:32.684Z,10.37
2022-09-24T00:14:00.163Z,9.80
2022-09-24T00:16:30.596Z,11.67
2022-09-24T00:18:59.033Z,12.70
2022-09-24T00:21:28.557Z,12.60
2022-09-24T00:23:58.529Z,11.23
2022-09-24T00:26:44.263Z,12.13
2022-09-24T00:29:13.827Z,11.80
2022-09-24T00:31:40.736Z,10.83
2022-09-24T00:34:07.865Z,10.37
2022-09-24T00:36:34.882Z,12.53
2022-09-24T00:39:02.007Z,10.93
2022-09-24T00:41:31.374Z,10.50
2022-09-24T00:44:00.326Z,10.27
2022-09-24T00:46:35.216Z,11.90
2022-09-24T00:49:10.080Z,11.60
2022-09-24T00:51:37.796Z,11.23
2022-09-24T00:54:09.370Z,12.07
2022-09-24T00:56:39.185Z,12.10
2022-09-24T00:59:09.006Z,13.03
2022-09-24T01:01:35.943Z,10.90
2022-09-24T01:04:04.370Z,14.43
2022-09-24T01:06:31.282Z,13.37
2022-09-24T01:08:59.886Z,12.63
2022-09-24T01:11:48.791Z,11.87
2022-09-24T01:14:27.639Z,14.40
2022-09-24T01:17:08.471Z,11.10
2022-09-24T01:19:59.472Z,14.43
2022-09-24T01:22:41.291Z,12.57
2022-09-24T01:25:13.295Z,10.70
2022-09-24T01:27:45.812Z,14.70
2022-09-24T01:30:15.231Z,10.53
2022-09-24T01:33:02.171Z,10.63
2022-09-24T01:35:36.458Z,11.27
2022-09-24T01:38:08.092Z,14.60
2022-09-24T01:40:36.701Z,11.30
2022-09-24T01:43:05.913Z,13.40
2022-09-24T01:45:35.489Z,11.67
2022-09-24T01:48:04.367Z,13.27
2022-09-24T01:50:38.162Z,9.43
2022-09-24T01:53:18.035Z,11.53
2022-09-24T01:55:49.739Z,11.63
2022-09-24T01:58:27.938Z,10.63
2022-09-24T02:01:03.496Z,7.90
2022-09-24T02:03:43.217Z,7.90
2022-09-24T02:06:17.784Z,8.13
2022-09-24T02:08:47.477Z,10.27
2022-09-24T02:11:23.270Z,10.60
2022-09-24T02:13:53.887Z,11.93
2022-09-24T02:16:48.096Z,8.30
2022-09-24T02:19:19.634Z,8.80
2022-09-24T02:21:47.195Z,8.33
2022-09-24T02:24:17.196Z,8.70
2022-09-24T02:26:44.153Z,11.17
2022-09-24T02:29:11.858Z,7.77
2022-09-24T02:31:42.981Z,10.63
2022-09-24T02:34:25.564Z,13.43
2022-09-24T02:37:14.188Z,8.20
2022-09-24T02:39:41.927Z,8.93
2022-09-24T02:42:13.128Z,10.10
2022-09-24T02:44:40.071Z,9.97
2022-09-24T02:47:07.430Z,11.03
2022-09-24T02:49:34.253Z,9.17
2022-09-24T02:52:01.238Z,11.47
2022-09-24T02:54:28.092Z,14.57
2022-09-24T02:56:55.344Z,10.50
2022-09-24T02:59:22.646Z,9.80
2022-09-24T03:01:50.291Z,10.53
2022-09-24T03:04:17.735Z,11.47
2022-09-24T03:06:44.550Z,11.30
2022-09-24T03:09:14.700Z,12.00
2022-09-24T03:11:41.619Z,9.00
2022-09-24T03:14:08.580Z,9.57
2022-09-24T03:16:35.518Z,11.33
2022-09-24T03:19:02.599Z,11.70
2022-09-24T03:21:29.660Z,10.47
2022-09-24T03:23:56.770Z,11.27
2022-09-24T03:26:23.692Z,10.67
2022-09-24T03:28:50.577Z,11.60
2022-09-24T03:31:17.593Z,10.27
2022-09-24T03:33:45.765Z,9.97
2022-09-24T03:36:14.145Z,11.63
2022-09-24T03:38:42.531Z,12.37
2022-09-24T03:41:10.644Z,8.27
2022-09-24T03:43:37.716Z,10.90
2022-09-24T03:46:06.922Z,10.13
2022-09-24T03:48:35.685Z,10.17
2022-09-24T03:51:11.533Z,9.53
2022-09-24T03:53:39.176Z,9.57
2022-09-24T03:56:07.357Z,10.07
2022-09-24T03:58:38.901Z,9.17
2022-09-24T04:01:07.182Z,12.03
2022-09-24T04:03:34.219Z,9.63
2022-09-24T04:06:00.945Z,11.27
2022-09-24T04:08:28.058Z,13.27
2022-09-24T04:10:55.555Z,10.13
2022-09-24T04:13:22.708Z,14.00
2022-09-24T04:15:50.402Z,10.23
2022-09-24T04:18:18.335Z,11.80
2022-09-24T04:20:45.578Z,9.80
2022-09-24T04:23:12.774Z,10.80
2022-09-24T04:25:42.338Z,12.87
2022-09-24T04:28:09.996Z,12.67
2022-09-24T04:30:38.254Z,13.40
2022-09-24T04:33:05.603Z,10.30
2022-09-24T04:35:35.389Z,17.57
2022-09-24T04:38:03.076Z,12.30
2022-09-24T04:40:30.373Z,11.47
2022-09-24T04:42:57.623Z,12.63
2022-09-24T04:45:26.650Z,13.27
2022-09-24T04:47:57.188Z,12.83
2022-09-24T04:50:26.495Z,12.20
2022-09-24T04:52:54.855Z,13.90
2022-09-24T04:55:22.408Z,14.23
2022-09-24T04:57:50.487Z,15.47
2022-09-24T05:00:19.859Z,12.97
2022-09-24T05:02:47.089Z,13.00
2022-09-24T05:05:14.442Z,14.03
2022-09-24T05:07:42.793Z,16.00
2022-09-24T05:10:09.697Z,13.20
2022-09-24T05:12:36.716Z,12.50
2022-09-24T05:15:04.182Z,17.57
2022-09-24T05:17:31.107Z,15.53
2022-09-24T05:19:59.555Z,13.60
2022-09-24T05:22:30.071Z,12.73
2022-09-24T05:24:57.117Z,14.43
2022-09-24T05:27:24.293Z,14.17
2022-09-24T05:29:51.198Z,12.63
2022-09-24T05:32:20.408Z,19.47
2022-09-24T05:34:47.558Z,12.63
2022-09-24T05:37:15.040Z,14.00
2022-09-24T05:39:42.347Z,13.50
2022-09-24T05:42:16.427Z,13.73
2022-09-24T05:44:45.643Z,11.57
2022-09-24T05:47:16.340Z,14.20
2022-09-24T05:49:43.220Z,13.67
2022-09-24T05:52:10.002Z,11.53
2022-09-24T05:54:36.829Z,15.87
2022-09-24T05:57:03.852Z,15.30
2022-09-24T05:59:30.569Z,15.53
2022-09-24T06:01:57.434Z,16.40
2022-09-24T06:04:24.343Z,14.63
2022-09-24T06:06:52.355Z,13.57
2022-09-24T06:09:19.111Z,12.67
2022-09-24T06:11:46.669Z,13.40
2022-09-24T06:14:15.128Z,13.30
2022-09-24T06:16:41.928Z,13.87
2022-09-24T06:19:08.816Z,14.03
2022-09-24T06:21:35.648Z,17.40
2022-09-24T06:24:03.066Z,15.70
2022-09-24T06:26:30.044Z,14.47
2022-09-24T06:29:00.783Z,15.50
2022-09-24T06:31:30.775Z,19.70
2022-09-24T06:33:57.705Z,18.33
2022-09-24T06:36:24.504Z,19.03
2022-09-24T06:38:52.793Z,19.47
2022-09-24T06:41:19.783Z,18.67
2022-09-24T06:43:46.585Z,18.00
2022-09-24T06:46:15.647Z,21.47
2022-09-24T06:48:42.661Z,17.93
2022-09-24T06:51:09.451Z,20.23
2022-09-24T06:53:36.348Z,20.37
2022-09-24T06:56:03.633Z,21.33
2022-09-24T06:58:30.880Z,22.10
2022-09-24T07:00:59.878Z,18.80
2022-09-24T07:03:28.454Z,18.83
2022-09-24T07:05:55.783Z,19.20
2022-09-24T07:08:23.353Z,19.83
2022-09-24T07:10:50.363Z,19.87
2022-09-24T07:13:17.377Z,21.37
2022-09-24T07:15:44.961Z,22.00
2022-09-24T07:18:12.437Z,21.43
2022-09-24T07:20:39.518Z,19.03
2022-09-24T07:23:08.119Z,20.20
2022-09-24T07:25:35.939Z,19.87
2022-09-24T07:28:04.869Z,20.73
2022-09-24T07:30:33.305Z,20.17
2022-09-24T07:33:00.458Z,20.43
2022-09-24T07:35:28.638Z,23.37
2022-09-24T07:38:12.273Z,21.87
2022-09-24T07:40:39.437Z,21.73
2022-09-24T07:43:13.668Z,22.27
2022-09-24T07:45:41.973Z,24.27
2022-09-24T07:48:10.619Z,21.27
2022-09-24T07:50:42.832Z,25.67
2022-09-24T07:53:13.330Z,21.97
2022-09-24T07:55:41.271Z,22.97
2022-09-24T07:58:12.178Z,24.50
2022-09-24T08:00:39.317Z,23.10
2022-09-24T08:03:07.382Z,23.33
2022-09-24T08:05:34.451Z,29.13
2022-09-24T08:08:01.468Z,27.00
2022-09-24T08:10:28.825Z,22.23
2022-09-24T08:12:58.538Z,22.93
2022-09-24T08:15:25.972Z,23.33
2022-09-24T08:17:53.093Z,25.40
2022-09-24T08:20:21.488Z,22.90
2022-09-24T08:22:48.436Z,23.37
2022-09-24T08:25:15.282Z,24.20
2022-09-24T08:27:42.282Z,24.27
2022-09-24T08:30:09.671Z,23.30
2022-09-24T08:32:36.501Z,23.07
2022-09-24T08:35:03.587Z,22.63
2022-09-24T08:37:32.764Z,23.10
2022-09-24T08:39:59.527Z,22.40
2022-09-24T08:42:38.088Z,26.20
2022-09-24T08:45:24.707Z,23.37
2022-09-24T08:48:22.392Z,24.73
2022-09-24T08:50:58.011Z,23.07
2022-09-24T08:53:44.221Z,21.30
2022-09-24T08:56:12.223Z,21.97
2022-09-24T08:58:53.167Z,22.70
2022-09-24T09:01:19.871Z,20.07
2022-09-24T09:03:51.721Z,20.63
2022-09-24T09:06:48.116Z,20.80
2022-09-24T09:09:24.230Z,19.47
2022-09-24T09:11:56.991Z,24.93
2022-09-24T09:14:42.251Z,23.87
2022-09-24T09:17:34.633Z,19.03
2022-09-24T09:20:07.452Z,19.03
2022-09-24T09:22:45.120Z,19.43
2022-09-24T09:25:36.290Z,22.60
2022-09-24T09:28:15.518Z,19.63
2022-09-24T09:31:00.163Z,20.27
2022-09-24T09:33:45.976Z,20.87
2022-09-24T09:36:45.240Z,21.53
2022-09-24T09:39:50.774Z,19.93
2022-09-24T09:42:39.910Z,23.90
2022-09-24T09:45:27.708Z,25.17
2022-09-24T09:47:57.098Z,22.10
2022-09-24T09:50:39.436Z,25.87
2022-09-24T09:53:06.226Z,23.97
2022-09-24T09:55:36.650Z,25.47
2022-09-24T09:58:15.674Z,24.50
2022-09-24T10:00:42.904Z,24.27
2022-09-24T10:03:27.924Z,27.33
2022-09-24T10:06:06.575Z,24.70
2022-09-24T10:08:33.804Z,25.83
2022-09-24T10:11:03.384Z,24.43
2022-09-24T10:13:33.045Z,25.43
2022-09-24T10:16:03.818Z,26.37
2022-09-24T10:18:37.523Z,24.40
2022-09-24T10:21:09.963Z,26.37
2022-09-24T10:23:40.412Z,25.27
2022-09-24T10:26:08.493Z,24.23
2022-09-24T10:29:00.398Z,23.10
2022-09-24T10:31:31.065Z,24.43
2022-09-24T10:34:01.263Z,28.43
2022-09-24T10:36:30.218Z,24.63
2022-09-24T10:39:08.645Z,27.70
2022-09-24T10:41:36.072Z,24.13
2022-09-24T10:44:13.747Z,22.70
2022-09-24T10:46:46.342Z,24.53
2022-09-24T10:49:50.802Z,24.33
2022-09-24T10:52:35.531Z,22.67
2022-09-24T10:55:08.060Z,24.40
2022-09-24T10:57:42.284Z,23.77
2022-09-24T11:00:09.946Z,23.17
2022-09-24T11:03:06.047Z,20.27
2022-09-24T11:05:53.368Z,21.63
2022-09-24T11:08:47.801Z,18.47
2022-09-24T11:11:36.949Z,17.67
2022-09-24T11:14:36.207Z,19.73
2022-09-24T11:17:22.604Z,19.67
2022-09-24T11:20:14.077Z,19.23
2022-09-24T11:22:51.511Z,20.37
2022-09-24T11:25:38.226Z,20.07
2022-09-24T11:28:20.499Z,20.40
2022-09-24T11:30:56.678Z,21.83
2022-09-24T11:33:49.754Z,20.40
2022-09-24T11:36:30.664Z,22.53
2022-09-24T11:39:16.983Z,20.80
2022-09-24T11:41:57.647Z,20.70
2022-09-24T11:44:43.450Z,21.57
2022-09-24T11:47:45.443Z,20.53
2022-09-24T11:50:20.811Z,22.17
2022-09-24T11:53:20.406Z,24.03
2022-09-24T11:55:54.896Z,22.33
2022-09-24T11:58:29.991Z,22.00
2022-09-24T12:01:02.561Z,22.13
2022-09-24T12:03:39.532Z,22.73
2022-09-24T12:06:13.021Z,23.77
2022-09-24T12:09:23.298Z,21.77
2022-09-24T12:12:04.213Z,24.80
2022-09-24T12:14:57.028Z,23.87
2022-09-24T12:17:29.428Z,22.77
2022-09-24T12:20:03.820Z,23.87
2022-09-24T12:22:33.041Z,23.40
2022-09-24T12:25:00.714Z,24.37
2022-09-24T12:27:36.089Z,23.63
2022-09-24T12:30:34.766Z,24.07
2022-09-24T12:33:12.224Z,25.07
2022-09-24T12:36:02.015Z,26.73
2022-09-24T12:38:58.840Z,24.90
2022-09-24T12:41:34.877Z,25.37
2022-09-24T12:44:07.237Z,28.83
2022-09-24T12:46:41.760Z,27.20
2022-09-24T12:49:26.955Z,28.47
2022-09-24T12:52:15.976Z,28.50
2022-09-24T12:54:44.341Z,32.30
2022-09-24T12:57:24.291Z,29.83
2022-09-24T12:59:57.991Z,30.93
2022-09-24T13:02:33.188Z,29.27
2022-09-24T13:05:03.131Z,28.07
2022-09-24T13:07:39.721Z,23.17
2022-09-24T13:10:18.512Z,22.17
2022-09-24T13:12:46.563Z,23.53
2022-09-24T13:15:34.749Z,20.43
2022-09-24T13:18:07.909Z,20.13
2022-09-24T13:20:36.950Z,19.63
2022-09-24T13:23:19.863Z,18.57
2022-09-24T13:26:24.577Z,19.47
2022-09-24T13:28:58.256Z,19.13
2022-09-24T13:31:41.003Z,20.13
2022-09-24T13:34:10.986Z,20.07
2022-09-24T13:37:08.306Z,19.90
2022-09-24T13:39:47.235Z,21.67
2022-09-24T13:42:35.197Z,21.70
2022-09-24T13:45:09.593Z,20.50
2022-09-24T13:48:00.460Z,20.00
2022-09-24T13:50:34.551Z,20.00
2022-09-24T13:53:40.356Z,19.40
2022-09-24T13:56:19.092Z,19.70
2022-09-24T13:58:47.663Z,22.10
2022-09-24T14:01:19.726Z,21.10
2022-09-24T14:04:05.864Z,20.63
2022-09-24T14:06:42.546Z,19.53
2022-09-24T14:09:23.515Z,19.77
2022-09-24T14:11:52.595Z,20.97
2022-09-24T14:14:22.149Z,19.83
2022-09-24T14:16:49.006Z,23.53
2022-09-24T14:19:16.973Z,23.60
2022-09-24T14:21:56.959Z,21.37
2022-09-24T14:24:31.233Z,24.30
2022-09-24T14:27:08.749Z,23.10
2022-09-24T14:30:01.210Z,24.00
2022-09-24T14:32:39.584Z,23.13
2022-09-24T14:35:21.206Z,26.37
2022-09-24T14:37:54.876Z,23.27
2022-09-24T14:40:23.439Z,23.73
2022-09-24T14:42:59.943Z,24.27
2022-09-24T14:45:37.867Z,25.07
2022-09-24T14:48:28.420Z,23.97
2022-09-24T14:50:55.486Z,23.10
2022-09-24T14:53:27.115Z,22.57
2022-09-24T14:55:54.696Z,22.57
2022-09-24T14:58:37.799Z,22.80
2022-09-24T15:01:15.571Z,24.90
2022-09-24T15:03:51.019Z,24.37
2022-09-24T15:06:21.242Z,23.67
2022-09-24T15:09:02.601Z,23.83
2022-09-24T15:11:34.196Z,25.90
2022-09-24T15:14:31.447Z,22.83
2022-09-24T15:17:10.577Z,22.63
2022-09-24T15:19:40.856Z,22.27
2022-09-24T15:22:09.821Z,23.60
2022-09-24T15:24:36.578Z,24.77
2022-09-24T15:27:22.771Z,23.90
2022-09-24T15:29:50.676Z,24.60
2022-09-24T15:32:19.196Z,24.57
2022-09-24T15:34:46.730Z,23.23
2022-09-24T15:37:22.128Z,24.43
2022-09-24T15:39:49.991Z,24.07
2022-09-24T15:42:23.908Z,21.30
2022-09-24T15:44:51.068Z,20.27
2022-09-24T15:47:18.740Z,21.93
2022-09-24T15:49:46.132Z,19.73
2022-09-24T15:52:24.248Z,24.23
2022-09-24T15:54:55.663Z,19.60
2022-09-24T15:57:28.453Z,21.50
2022-09-24T15:59:55.350Z,20.07
2022-09-24T16:02:27.878Z,17.43
2022-09-24T16:05:00.149Z,16.80
2022-09-24T16:07:29.531Z,15.70
2022-09-24T16:09:56.298Z,15.47
2022-09-24T16:12:27.881Z,17.63
2022-09-24T16:14:58.968Z,17.57
2022-09-24T16:17:26.883Z,18.67
2022-09-24T16:19:53.942Z,16.70
2022-09-24T16:22:21.003Z,19.77
2022-09-24T16:24:47.996Z,19.33
2022-09-24T16:27:14.812Z,19.77
2022-09-24T16:29:41.592Z,19.07
2022-09-24T16:32:08.438Z,21.73
2022-09-24T16:34:35.243Z,21.10
2022-09-24T16:37:02.045Z,19.67
2022-09-24T16:39:28.792Z,19.80
2022-09-24T16:41:55.584Z,23.10
2022-09-24T16:44:22.496Z,20.87
2022-09-24T16:46:49.261Z,21.60
2022-09-24T16:49:16.109Z,22.07
2022-09-24T16:51:42.920Z,22.03
2022-09-24T16:54:09.741Z,21.87
2022-09-24T16:56:37.583Z,19.57
2022-09-24T16:59:04.650Z,18.63
2022-09-24T17:01:31.571Z,22.87
2022-09-24T17:03:59.048Z,21.83
2022-09-24T17:06:28.782Z,20.13
2022-09-24T17:09:14.580Z,23.23
2022-09-24T17:11:42.076Z,21.57
2022-09-24T17:14:12.305Z,24.80
2022-09-24T17:16:41.194Z,29.33
2022-09-24T17:19:09.632Z,33.07
2022-09-24T17:21:38.104Z,37.50
2022-09-24T17:24:05.399Z,33.13
2022-09-24T17:26:32.164Z,31.83
2022-09-24T17:28:59.011Z,31.13
2022-09-24T17:31:26.643Z,39.30
2022-09-24T17:33:58.644Z,39.07
2022-09-24T17:36:26.731Z,40.33
2022-09-24T17:38:53.860Z,40.47
2022-09-24T17:41:20.696Z,42.27
2022-09-24T17:43:48.149Z,43.57
2022-09-24T17:46:17.223Z,41.50
2022-09-24T17:48:46.457Z,43.07
2022-09-24T17:51:22.848Z,42.23
2022-09-24T17:53:52.994Z,46.07
2022-09-24T17:56:22.799Z,42.73
2022-09-24T17:58:49.911Z,40.47
2022-09-24T18:01:19.705Z,46.97
2022-09-24T18:03:46.863Z,43.80
2022-09-24T18:06:15.221Z,46.80
2022-09-24T18:08:44.169Z,47.33
2022-09-24T18:11:17.582Z,47.77
2022-09-24T18:13:44.989Z,45.73
2022-09-24T18:16:14.462Z,44.97
2022-09-24T18:18:42.595Z,47.37
2022-09-24T18:21:11.758Z,43.97
2022-09-24T18:23:39.482Z,44.17
2022-09-24T18:26:32.486Z,48.67
2022-09-24T18:29:01.268Z,42.50
2022-09-24T18:31:29.695Z,49.73
2022-09-24T18:34:03.911Z,48.83
2022-09-24T18:36:31.719Z,47.93
2022-09-24T18:38:58.469Z,45.50
2022-09-24T18:41:27.192Z,48.13
2022-09-24T18:43:54.853Z,45.00
2022-09-24T18:46:23.201Z,50.67
2022-09-24T18:48:52.825Z,52.60
2022-09-24T18:51:38.561Z,48.33
2022-09-24T18:54:14.042Z,57.67
2022-09-24T18:56:41.334Z,55.67
2022-09-24T18:59:12.266Z,53.40
2022-09-24T19:01:40.126Z,51.37
2022-09-24T19:04:10.678Z,58.90
2022-09-24T19:06:42.986Z,53.07
2022-09-24T19:09:11.699Z,54.73
2022-09-24T19:11:38.804Z,51.97
2022-09-24T19:14:05.742Z,46.87
2022-09-24T19:16:33.556Z,34.47
2022-09-24T19:19:01.314Z,34.93
2022-09-24T19:21:28.824Z,26.57
2022-09-24T19:23:57.431Z,21.30
2022-09-24T19:26:27.497Z,23.23
2022-09-24T19:28:55.037Z,20.97
2022-09-24T19:31:26.953Z,20.10
2022-09-24T19:33:54.896Z,15.33
2022-09-24T19:36:22.370Z,15.30
2022-09-24T19:38:50.403Z,13.77
2022-09-24T19:41:26.647Z,13.57
2022-09-24T19:43:57.031Z,11.63
2022-09-24T19:46:25.687Z,12.23
2022-09-24T19:48:54.911Z,11.70
2022-09-24T19:51:30.304Z,11.43
2022-09-24T19:54:02.843Z,11.73
2022-09-24T19:56:31.922Z,12.10
2022-09-24T19:59:00.857Z,11.57
2022-09-24T20:01:30.146Z,13.80
2022-09-24T20:03:58.361Z,12.23
2022-09-24T20:06:28.922Z,12.87
2022-09-24T20:08:57.320Z,11.03
2022-09-24T20:11:25.767Z,11.97
2022-09-24T20:13:55.799Z,9.43
2022-09-24T20:16:26.463Z,9.77
2022-09-24T20:18:57.593Z,10.63
2022-09-24T20:21:27.876Z,10.33
2022-09-24T20:23:56.656Z,12.57
2022-09-24T20:26:43.703Z,12.63
2022-09-24T20:29:10.985Z,11.27
2022-09-24T20:31:41.856Z,11.00
2022-09-24T20:34:09.360Z,11.43
2022-09-24T20:36:36.500Z,11.30
2022-09-24T20:39:04.033Z,11.53
2022-09-24T20:41:30.947Z,14.03
2022-09-24T20:43:57.811Z,13.50
2022-09-24T20:46:28.628Z,13.83
2022-09-24T20:48:58.309Z,13.57
2022-09-24T20:51:27.326Z,12.67
2022-09-24T20:53:54.986Z,12.70
2022-09-24T20:56:22.337Z,13.33
2022-09-24T20:58:50.820Z,15.13
2022-09-24T21:01:18.581Z,15.73
2022-09-24T21:03:46.213Z,15.83
2022-09-24T21:06:14.979Z,16.63
2022-09-24T21:08:44.235Z,17.17
2022-09-24T21:11:18.164Z,17.20
2022-09-24T21:13:49.990Z,16.77
2022-09-24T21:16:19.879Z,18.03
2022-09-24T21:18:47.668Z,18.43
2022-09-24T21:21:19.881Z,20.93
2022-09-24T21:23:49.137Z,19.27
2022-09-24T21:26:21.896Z,19.53
2022-09-24T21:28:53.958Z,19.90
2022-09-24T21:31:24.002Z,21.40
2022-09-24T21:33:52.717Z,20.67
2022-09-24T21:36:25.140Z,20.60
2022-09-24T21:38:58.919Z,23.13
2022-09-24T21:41:34.213Z,24.03
2022-09-24T21:44:02.179Z,23.90
2022-09-24T21:46:32.184Z,26.40
2022-09-24T21:49:00.332Z,24.63
2022-09-24T21:51:28.710Z,25.33
2022-09-24T21:54:01.822Z,28.00
2022-09-24T21:56:30.485Z,28.63
2022-09-24T21:58:58.387Z,28.60
2022-09-24T22:01:30.710Z,26.63
2022-09-24T22:03:59.667Z,27.23
2022-09-24T22:06:29.188Z,28.37
2022-09-24T22:09:04.806Z,30.73
2022-09-24T22:11:31.829Z,27.63
2022-09-24T22:14:01.137Z,28.40
2022-09-24T22:16:35.906Z,29.10
2022-09-24T22:19:04.255Z,30.53
2022-09-24T22:21:31.441Z,32.80
2022-09-24T22:23:58.826Z,32.37
2022-09-24T22:26:29.652Z,33.13
2022-09-24T22:28:57.473Z,34.77
2022-09-24T22:31:24.950Z,34.33
2022-09-24T22:34:10.514Z,37.70
2022-09-24T22:36:37.674Z,34.67
2022-09-24T22:39:05.632Z,35.87
2022-09-24T22:41:38.508Z,34.80
2022-09-24T22:44:06.332Z,36.23
2022-09-24T22:46:34.131Z,35.67
2022-09-24T22:49:01.476Z,37.53
2022-09-24T22:51:28.325Z,38.10
2022-09-24T22:53:56.898Z,35.33
2022-09-24T22:56:25.023Z,38.90
2022-09-24T22:58:57.159Z,37.83
2022-09-24T23:01:38.427Z,40.77
2022-09-24T23:04:06.232Z,41.27
2022-09-24T23:06:34.672Z,38.80
2022-09-24T23:09:01.907Z,40.97
2022-09-24T23:11:31.478Z,36.00
2022-09-24T23:14:00.811Z,37.13
2022-09-24T23:16:30.107Z,36.33
2022-09-24T23:18:59.970Z,38.43
2022-09-24T23:21:30.411Z,37.10
2022-09-24T23:24:09.318Z,34.73
2022-09-24T23:26:36.792Z,36.67
2022-09-24T23:29:04.462Z,38.77
2022-09-24T23:31:34.405Z,35.13
2022-09-24T23:34:01.723Z,37.13
2022-09-24T23:36:31.401Z,36.90
2022-09-24T23:39:00.226Z,37.63
2022-09-24T23:41:29.007Z,32.53
2022-09-24T23:43:55.756Z,30.07
2022-09-24T23:46:22.710Z,34.03
2022-09-24T23:48:49.830Z,32.87
2022-09-24T23:51:16.565Z,28.83
2022-09-24T23:53:43.360Z,33.20
2022-09-24T23:56:11.228Z,31.77
2022-09-24T23:58:38.020Z,31.07
